Time;durP1;ratioP1;P1;durP2;ratioP2;P2;SDS_P1;SDS_P2;PMS_P1;PMS_P2;Temp;Humidity;BMP_temperature;BMP_pressure;BME280_temperature;BME280_humidity;BME280_pressure;Samples;Min_cycle;Max_cycle;Signal;HPM_P1;HPM_P2
2023/04/02 00:00:09;;;;;;;5.57;3.40;;;4.30;99.90;;;;;;5104783;28;20035;-83
2023/04/02 00:02:55;;;;;;;7.30;3.53;;;4.30;99.90;;;;;;5101167;28;20063;-84
2023/04/02 00:05:29;;;;;;;5.63;3.20;;;4.30;99.90;;;;;;5089413;28;20040;-84
2023/04/02 00:08:16;;;;;;;5.20;3.30;;;4.30;99.90;;;;;;5105110;28;20050;-84
2023/04/02 00:10:59;;;;;;;9.15;3.88;;;4.30;99.90;;;;;;5105525;28;20067;-85
2023/04/02 00:13:32;;;;;;;5.57;3.00;;;4.20;99.90;;;;;;5108637;28;20425;-84
2023/04/02 00:15:59;;;;;;;6.63;3.10;;;4.20;99.90;;;;;;5086334;28;20035;-85
2023/04/02 00:18:26;;;;;;;8.13;3.35;;;4.10;99.90;;;;;;5092913;28;20644;-85
2023/04/02 00:21:01;;;;;;;4.63;2.85;;;4.00;99.90;;;;;;5106154;28;20036;-83
2023/04/02 00:23:27;;;;;;;5.57;3.33;;;3.90;99.90;;;;;;5105445;28;20039;-84
2023/04/02 00:25:52;;;;;;;6.95;3.25;;;3.70;99.90;;;;;;5110972;28;20486;-84
2023/04/02 00:28:21;;;;;;;5.85;3.17;;;3.60;99.90;;;;;;5090044;28;20566;-83
2023/04/02 00:30:58;;;;;;;7.43;3.47;;;3.50;99.90;;;;;;5126669;27;20506;-85
2023/04/02 00:33:27;;;;;;;6.53;2.83;;;3.50;99.90;;;;;;5102482;28;20491;-84
2023/04/02 00:35:54;;;;;;;8.73;3.00;;;3.40;99.90;;;;;;5106141;28;20051;-85
2023/04/02 00:38:30;;;;;;;7.40;3.30;;;3.40;99.90;;;;;;5104066;28;20040;-84
2023/04/02 00:40:59;;;;;;;8.32;3.00;;;3.30;99.90;;;;;;5105843;28;20470;-84
2023/04/02 00:43:29;;;;;;;6.45;3.03;;;3.30;99.90;;;;;;5107883;28;20474;-85
2023/04/02 00:46:00;;;;;;;5.93;2.88;;;3.20;99.90;;;;;;5104862;28;20081;-85
2023/04/02 00:48:31;;;;;;;6.43;2.90;;;3.20;99.90;;;;;;5110175;28;20044;-84
2023/04/02 00:51:22;;;;;;;5.40;3.10;;;3.20;99.90;;;;;;5105917;28;20096;-84
2023/04/02 00:53:50;;;;;;;9.27;3.25;;;3.10;99.90;;;;;;5104829;28;20089;-84
2023/04/02 00:56:38;;;;;;;7.13;3.22;;;3.10;99.90;;;;;;5093250;28;20050;-84
2023/04/02 00:59:04;;;;;;;8.07;3.00;;;3.00;99.90;;;;;;5107000;28;20039;-84
2023/04/02 01:01:36;;;;;;;4.90;2.50;;;3.00;99.90;;;;;;5106193;28;20042;-83
2023/04/02 01:04:04;;;;;;;4.28;2.50;;;3.00;99.90;;;;;;5119175;28;20040;-85
2023/04/02 01:06:35;;;;;;;6.80;3.15;;;3.50;99.90;;;;;;5092851;28;20032;-85
2023/04/02 01:09:29;;;;;;;7.43;3.47;;;2.90;99.90;;;;;;5107835;28;20036;-83
2023/04/02 01:12:03;;;;;;;6.95;2.90;;;2.90;99.90;;;;;;5101708;28;20073;-84
2023/04/02 01:14:57;;;;;;;7.32;3.15;;;2.80;99.90;;;;;;5115028;28;20047;-83
2023/04/02 01:17:36;;;;;;;5.85;2.88;;;2.80;99.90;;;;;;5103429;28;20039;-84
2023/04/02 01:20:21;;;;;;;6.20;2.72;;;2.70;99.90;;;;;;5106257;28;20384;-84
2023/04/02 01:23:01;;;;;;;5.97;2.72;;;2.70;99.90;;;;;;5088013;28;20071;-84
2023/04/02 01:25:51;;;;;;;5.88;2.38;;;2.60;99.90;;;;;;5081274;28;20511;-85
2023/04/02 01:28:30;;;;;;;4.35;2.90;;;2.60;99.90;;;;;;5112363;28;20405;-83
2023/04/02 01:30:58;;;;;;;5.63;2.67;;;2.60;99.90;;;;;;5093174;28;20513;-84
2023/04/02 01:33:32;;;;;;;5.90;2.75;;;2.60;99.90;;;;;;5118212;28;20096;-83
2023/04/02 01:36:13;;;;;;;5.95;2.97;;;2.50;99.90;;;;;;5108268;28;20048;-84
2023/04/02 01:39:01;;;;;;;5.20;2.30;;;2.50;99.90;;;;;;5113839;27;20046;-83
2023/04/02 01:41:42;;;;;;;5.25;2.63;;;2.50;99.90;;;;;;5092632;28;20116;-82
2023/04/02 01:44:14;;;;;;;5.88;2.70;;;2.50;99.90;;;;;;5107482;27;20036;-84
2023/04/02 01:46:41;;;;;;;5.57;2.30;;;2.40;99.90;;;;;;5081298;28;20036;-85
2023/04/02 01:49:14;;;;;;;4.93;2.25;;;2.40;99.90;;;;;;5139909;27;20036;-83
2023/04/02 01:51:43;;;;;;;5.17;2.53;;;2.40;99.90;;;;;;5119308;28;20112;-85
2023/04/02 01:54:10;;;;;;;5.85;2.53;;;2.40;99.90;;;;;;5111824;28;20656;-84
2023/04/02 01:56:35;;;;;;;5.05;2.20;;;2.30;99.90;;;;;;5115893;28;20055;-85
2023/04/02 01:59:04;;;;;;;5.38;2.20;;;2.30;99.90;;;;;;5120092;27;20044;-84
2023/04/02 02:01:56;;;;;;;3.75;2.17;;;2.20;99.90;;;;;;5111737;28;20595;-84
2023/04/02 02:04:21;;;;;;;5.68;2.20;;;2.30;99.90;;;;;;5116443;27;20035;-84
2023/04/02 02:06:47;;;;;;;4.32;2.00;;;2.20;99.90;;;;;;5118330;27;20502;-84
2023/04/02 02:09:25;;;;;;;6.50;2.72;;;2.20;99.90;;;;;;5124105;27;20142;-84
2023/04/02 02:11:51;;;;;;;4.28;1.85;;;2.20;99.90;;;;;;5111532;27;20044;-82
2023/04/02 02:14:22;;;;;;;3.13;1.98;;;2.20;99.90;;;;;;5105206;27;20113;-83
2023/04/02 02:16:48;;;;;;;3.80;1.70;;;2.20;99.90;;;;;;5116311;27;20044;-84
2023/04/02 02:19:28;;;;;;;4.05;2.00;;;2.10;99.90;;;;;;5095258;28;20032;-83
2023/04/02 02:22:07;;;;;;;5.82;1.88;;;2.10;99.90;;;;;;5104684;27;20071;-84
2023/04/02 02:24:35;;;;;;;7.40;2.28;;;2.10;99.90;;;;;;5102404;27;20092;-84
2023/04/02 02:27:20;;;;;;;3.83;1.92;;;2.00;99.90;;;;;;5115774;27;20101;-84
2023/04/02 02:30:00;;;;;;;2.90;1.42;;;2.00;99.90;;;;;;5111058;27;20044;-84
2023/04/02 02:32:29;;;;;;;4.97;1.67;;;2.00;99.90;;;;;;5113660;27;20042;-83
2023/04/02 02:35:02;;;;;;;3.90;1.70;;;1.90;99.90;;;;;;5112056;28;20055;-84
2023/04/02 02:37:33;;;;;;;4.00;1.58;;;1.90;99.90;;;;;;5112450;27;20121;-84
2023/04/02 02:40:02;;;;;;;5.78;1.75;;;1.90;99.90;;;;;;5113400;27;20051;-85
2023/04/02 02:42:35;;;;;;;5.80;1.88;;;1.80;99.90;;;;;;5093433;28;20111;-84
2023/04/02 02:45:05;;;;;;;3.15;1.48;;;1.80;99.90;;;;;;5112477;27;20368;-84
2023/04/02 02:47:35;;;;;;;4.35;1.60;;;1.80;99.90;;;;;;5105135;27;20090;-85
2023/04/02 02:50:11;;;;;;;7.30;2.00;;;1.80;99.90;;;;;;5095469;28;20050;-84
2023/04/02 02:52:38;;;;;;;4.90;1.50;;;1.70;99.90;;;;;;5091540;28;20035;-83
2023/04/02 02:55:14;;;;;;;4.57;1.63;;;1.80;99.90;;;;;;5141556;27;20044;-85
2023/04/02 02:57:51;;;;;;;5.45;1.52;;;1.70;99.90;;;;;;5101978;27;20044;-84
2023/04/02 03:00:19;;;;;;;6.00;1.60;;;1.70;99.90;;;;;;5115202;27;20092;-83
2023/04/02 03:02:46;;;;;;;4.22;1.58;;;1.70;99.90;;;;;;5108634;27;20084;-85
2023/04/02 03:05:19;;;;;;;6.97;1.60;;;1.60;99.90;;;;;;5108976;27;20062;-84
2023/04/02 03:07:45;;;;;;;6.28;1.77;;;1.60;99.90;;;;;;5095041;28;20055;-84
2023/04/02 03:10:21;;;;;;;4.57;1.50;;;1.60;99.90;;;;;;5111849;28;20459;-84
2023/04/02 03:12:57;;;;;;;2.83;1.30;;;1.50;99.90;;;;;;5086489;28;20050;-84
2023/04/02 03:15:45;;;;;;;3.57;1.60;;;1.50;99.90;;;;;;5107957;28;20043;-84
2023/04/02 03:18:32;;;;;;;4.27;2.00;;;1.50;99.90;;;;;;5093848;27;20078;-84
2023/04/02 03:21:06;;;;;;;3.07;1.50;;;1.40;99.90;;;;;;5113347;27;20108;-84
2023/04/02 03:23:38;;;;;;;5.57;1.60;;;1.50;99.90;;;;;;5110095;28;20039;-85
2023/04/02 03:26:23;;;;;;;4.22;1.50;;;1.40;99.90;;;;;;5117944;27;20454;-84
2023/04/02 03:29:05;;;;;;;4.50;1.50;;;1.40;99.90;;;;;;5104685;28;20053;-85
2023/04/02 03:31:43;;;;;;;5.97;1.70;;;1.40;99.90;;;;;;5112735;27;20039;-84
2023/04/02 03:34:24;;;;;;;4.27;1.40;;;1.40;99.90;;;;;;5105491;28;20036;-84
2023/04/02 03:36:58;;;;;;;5.77;1.50;;;1.40;99.90;;;;;;5095699;28;20043;-85
2023/04/02 03:39:42;;;;;;;4.87;1.57;;;1.40;99.90;;;;;;5140945;27;20043;-84
2023/04/02 03:42:24;;;;;;;4.53;1.60;;;1.40;99.90;;;;;;5108394;28;20102;-84
2023/04/02 03:45:04;;;;;;;2.17;1.30;;;1.40;99.90;;;;;;5092169;28;20351;-84
2023/04/02 03:47:35;;;;;;;5.00;1.47;;;1.40;99.90;;;;;;5136238;27;20040;-85
2023/04/02 03:50:10;;;;;;;3.90;1.40;;;1.40;99.90;;;;;;5113879;27;20043;-84
2023/04/02 03:52:37;;;;;;;3.87;1.50;;;1.30;99.90;;;;;;5128810;27;20068;-84
2023/04/02 03:55:30;;;;;;;4.60;1.80;;;1.30;99.90;;;;;;5112395;27;20517;-84
2023/04/02 03:57:59;;;;;;;7.07;1.65;;;1.30;99.90;;;;;;5105572;27;20047;-84
2023/04/02 04:00:29;;;;;;;4.90;1.50;;;1.30;99.90;;;;;;5144835;27;20078;-83
2023/04/02 04:03:02;;;;;;;4.07;1.30;;;1.30;99.90;;;;;;5117345;27;20414;-84
2023/04/02 04:05:37;;;;;;;6.15;1.52;;;1.30;99.90;;;;;;5110893;28;20035;-86
2023/04/02 04:08:14;;;;;;;6.97;1.33;;;1.30;99.90;;;;;;5093665;28;20433;-83
2023/04/02 04:10:42;;;;;;;6.63;1.57;;;1.30;99.90;;;;;;5106902;27;20109;-83
2023/04/02 04:13:14;;;;;;;5.13;1.80;;;1.30;99.90;;;;;;5089112;28;20414;-85
2023/04/02 04:16:10;;;;;;;4.03;1.20;;;1.30;99.90;;;;;;5086743;28;20089;-84
2023/04/02 04:19:06;;;;;;;7.50;1.63;;;1.30;99.90;;;;;;5102999;27;20297;-84
2023/04/02 04:21:38;;;;;;;7.23;1.80;;;1.30;99.90;;;;;;5095944;27;20127;-86
2023/04/02 04:24:15;;;;;;;4.83;1.40;;;1.30;99.90;;;;;;5108966;27;20042;-84
2023/04/02 04:26:54;;;;;;;4.83;1.70;;;1.30;99.90;;;;;;5115629;27;20036;-84
2023/04/02 04:29:44;;;;;;;5.20;1.67;;;1.30;99.90;;;;;;5099301;28;20105;-84
2023/04/02 04:32:30;;;;;;;5.30;1.40;;;1.30;99.90;;;;;;5096616;28;20080;-84
2023/04/02 04:35:20;;;;;;;4.33;1.27;;;1.20;99.90;;;;;;5111808;27;20538;-83
2023/04/02 04:37:52;;;;;;;3.67;1.20;;;1.30;99.90;;;;;;5100107;28;20047;-85
2023/04/02 04:40:23;;;;;;;7.43;1.60;;;1.20;99.90;;;;;;5107949;28;20168;-84
2023/04/02 04:42:54;;;;;;;3.93;1.40;;;1.20;99.90;;;;;;5119879;28;20498;-84
2023/04/02 04:45:37;;;;;;;3.87;1.23;;;1.10;99.90;;;;;;5108017;28;20496;-84
2023/04/02 04:48:20;;;;;;;3.80;1.30;;;1.20;99.90;;;;;;5106148;28;20517;-85
2023/04/02 04:51:04;;;;;;;3.53;1.40;;;1.10;99.90;;;;;;5104250;28;20122;-85
2023/04/02 04:53:30;;;;;;;4.15;1.35;;;1.10;99.90;;;;;;5109382;28;20054;-84
2023/04/02 04:56:03;;;;;;;7.23;1.57;;;1.30;99.90;;;;;;5107111;28;20134;-84
2023/04/02 04:58:39;;;;;;;7.27;1.53;;;1.10;99.90;;;;;;5098066;28;20070;-84
2023/04/02 05:01:18;;;;;;;5.77;1.40;;;1.10;99.90;;;;;;5090919;28;20596;-83
2023/04/02 05:04:15;;;;;;;6.40;1.10;;;1.20;99.90;;;;;;5135228;27;20038;-83
2023/04/02 05:06:59;;;;;;;5.07;1.37;;;1.10;99.90;;;;;;5105173;28;20027;-84
2023/04/02 05:09:51;;;;;;;3.38;1.30;;;1.20;99.90;;;;;;5087654;28;20039;-83
2023/04/02 05:12:36;;;;;;;4.50;1.13;;;1.20;99.90;;;;;;5110639;28;20506;-84
2023/04/02 05:15:07;;;;;;;4.07;1.20;;;1.10;99.90;;;;;;5112782;28;20063;-84
2023/04/02 05:18:10;;;;;;;4.90;1.40;;;1.10;99.90;;;;;;5105846;28;20036;-85
2023/04/02 05:20:52;;;;;;;4.17;1.57;;;1.10;99.90;;;;;;5073106;28;20040;-84
2023/04/02 05:23:29;;;;;;;3.20;1.13;;;1.10;99.90;;;;;;5112199;28;20088;-83
2023/04/02 05:26:13;;;;;;;3.40;1.30;;;1.20;99.90;;;;;;5093769;28;20088;-85
2023/04/02 05:29:15;;;;;;;8.73;2.08;;;1.20;99.90;;;;;;5101237;28;20046;-84
2023/04/02 05:31:52;;;;;;;6.03;1.20;;;1.30;99.90;;;;;;5107881;28;20519;-84
2023/04/02 05:34:29;;;;;;;4.53;1.13;;;1.30;99.90;;;;;;5087898;28;20519;-84
2023/04/02 05:36:54;;;;;;;3.33;1.20;;;1.30;99.90;;;;;;5105647;27;20100;-85
2023/04/02 05:39:25;;;;;;;5.53;1.40;;;1.40;99.90;;;;;;5113022;28;20036;-84
2023/04/02 05:42:07;;;;;;;4.10;1.20;;;1.40;99.90;;;;;;5098419;27;20075;-83
2023/04/02 05:44:36;;;;;;;4.03;1.10;;;1.50;99.90;;;;;;5112074;27;20487;-84
2023/04/02 05:47:12;;;;;;;3.97;1.10;;;1.50;99.90;;;;;;5107535;28;20078;-84
2023/04/02 05:49:50;;;;;;;3.53;1.00;;;1.60;99.90;;;;;;5109846;27;20509;-85
2023/04/02 05:52:27;;;;;;;4.33;1.20;;;1.60;99.90;;;;;;5089264;28;20076;-83
2023/04/02 05:55:19;;;;;;;4.83;1.20;;;1.70;99.90;;;;;;5110165;27;20036;-86
2023/04/02 05:57:50;;;;;;;5.13;1.40;;;1.70;99.90;;;;;;5092230;28;20036;-83
2023/04/02 06:00:25;;;;;;;4.83;1.20;;;1.80;99.90;;;;;;5110995;28;20032;-83
2023/04/02 06:02:59;;;;;;;5.03;1.20;;;1.80;99.90;;;;;;5114213;27;20093;-84
2023/04/02 06:05:32;;;;;;;5.40;1.40;;;1.90;99.90;;;;;;5132196;27;20126;-84
2023/04/02 06:08:06;;;;;;;2.78;1.10;;;1.90;99.90;;;;;;5105043;28;20045;-85
2023/04/02 06:10:36;;;;;;;8.95;1.77;;;2.00;99.90;;;;;;5092309;28;20051;-84
2023/04/02 06:13:05;;;;;;;3.37;1.17;;;2.00;99.90;;;;;;5113122;28;20043;-84
2023/04/02 06:15:34;;;;;;;4.20;1.40;;;2.10;99.90;;;;;;5087420;28;20039;-84
2023/04/02 06:18:16;;;;;;;5.07;1.20;;;2.20;99.90;;;;;;5106288;28;20044;-84
2023/04/02 06:20:42;;;;;;;3.20;0.90;;;2.10;99.90;;;;;;5110848;27;20031;-84
2023/04/02 06:23:19;;;;;;;3.40;0.97;;;2.10;99.90;;;;;;5108105;27;20039;-84
2023/04/02 06:25:49;;;;;;;8.73;1.93;;;2.10;99.90;;;;;;5115452;27;20084;-84
2023/04/02 06:28:25;;;;;;;4.13;1.23;;;2.10;99.90;;;;;;5108998;28;20058;-86
2023/04/02 06:30:55;;;;;;;4.67;1.07;;;2.10;99.90;;;;;;5109845;28;20047;-83
2023/04/02 06:33:20;;;;;;;2.57;1.10;;;2.10;99.90;;;;;;5098796;27;20039;-84
2023/04/02 06:35:50;;;;;;;4.53;1.60;;;2.20;99.90;;;;;;5111515;27;20525;-85
2023/04/02 06:38:21;;;;;;;5.93;1.40;;;2.20;99.90;;;;;;5114234;27;20047;-84
2023/04/02 06:40:55;;;;;;;6.00;1.40;;;2.30;99.90;;;;;;5107514;28;20563;-84
2023/04/02 06:43:32;;;;;;;3.50;1.20;;;2.30;99.90;;;;;;5107340;28;20055;-83
2023/04/02 06:46:01;;;;;;;2.88;1.00;;;2.40;99.90;;;;;;5106450;28;20036;-84
2023/04/02 06:48:28;;;;;;;3.25;0.98;;;2.50;99.90;;;;;;5107905;28;20031;-84
2023/04/02 06:51:07;;;;;;;6.07;1.10;;;2.60;99.90;;;;;;5094591;28;20523;-85
2023/04/02 06:53:36;;;;;;;3.90;1.10;;;3.20;99.90;;;;;;5117328;27;20035;-85
2023/04/02 06:56:24;;;;;;;6.93;1.15;;;2.80;99.90;;;;;;5111413;28;20047;-85
2023/04/02 06:58:50;;;;;;;4.10;1.20;;;2.90;99.90;;;;;;5081666;28;20031;-85
2023/04/02 07:01:20;;;;;;;4.55;1.25;;;2.90;99.90;;;;;;5104611;28;20172;-86
2023/04/02 07:03:46;;;;;;;5.28;1.20;;;2.90;99.90;;;;;;5107444;27;20044;-86
2023/04/02 07:06:15;;;;;;;4.40;1.08;;;3.00;99.90;;;;;;5097303;28;20038;-85
2023/04/02 07:08:40;;;;;;;4.70;1.25;;;3.20;99.90;;;;;;5111804;28;20061;-83
2023/04/02 07:11:06;;;;;;;2.40;1.05;;;3.40;99.90;;;;;;5136544;27;20112;-85
2023/04/02 07:13:31;;;;;;;4.22;1.48;;;3.50;99.90;;;;;;5113928;27;20165;-84
2023/04/02 07:15:57;;;;;;;2.88;1.00;;;3.60;99.90;;;;;;5100708;28;20077;-83
2023/04/02 07:18:25;;;;;;;4.72;1.08;;;3.70;99.90;;;;;;5103118;27;20047;-83
2023/04/02 07:20:51;;;;;;;7.72;1.30;;;3.80;99.90;;;;;;5100653;28;20031;-85
2023/04/02 07:23:16;;;;;;;4.70;1.05;;;3.80;99.90;;;;;;5113552;27;20036;-85
2023/04/02 07:25:42;;;;;;;4.80;1.40;;;3.90;99.90;;;;;;5099553;28;20035;-84
2023/04/02 07:28:07;;;;;;;4.50;1.73;;;4.00;99.90;;;;;;5114571;27;20067;-85
2023/04/02 07:30:33;;;;;;;3.78;0.93;;;4.20;99.90;;;;;;5112191;28;20054;-83
2023/04/02 07:32:58;;;;;;;4.70;1.10;;;4.30;99.90;;;;;;5112832;27;20122;-84
2023/04/02 07:35:24;;;;;;;4.10;1.05;;;4.30;99.90;;;;;;5109897;28;20043;-84
2023/04/02 07:37:51;;;;;;;4.72;1.20;;;4.40;99.90;;;;;;5109651;28;20465;-83
2023/04/02 07:40:20;;;;;;;3.25;0.93;;;4.40;99.90;;;;;;5114984;27;20031;-83
2023/04/02 07:42:46;;;;;;;3.90;1.10;;;4.50;99.90;;;;;;5104799;28;20101;-84
2023/04/02 07:45:12;;;;;;;6.00;1.10;;;4.40;99.90;;;;;;5128797;27;20047;-83
2023/04/02 07:47:38;;;;;;;5.00;1.58;;;4.30;99.90;;;;;;5090690;28;20172;-83
2023/04/02 07:50:05;;;;;;;2.40;0.85;;;4.30;99.90;;;;;;5107479;27;20698;-83
2023/04/02 07:52:30;;;;;;;5.38;1.30;;;4.30;99.90;;;;;;5114918;27;20047;-83
2023/04/02 07:54:56;;;;;;;6.65;1.50;;;4.50;99.90;;;;;;5108449;28;20031;-84
2023/04/02 07:57:22;;;;;;;6.60;1.30;;;4.70;99.90;;;;;;5136289;27;20069;-84
2023/04/02 07:59:48;;;;;;;3.30;1.13;;;4.70;99.90;;;;;;5101850;27;20039;-83
2023/04/02 08:02:19;;;;;;;3.30;1.00;;;4.80;99.90;;;;;;5109024;28;20402;-83
2023/04/02 08:04:44;;;;;;;5.32;1.30;;;4.90;99.90;;;;;;5093611;28;20042;-83
2023/04/02 08:07:10;;;;;;;2.78;1.48;;;4.70;99.90;;;;;;5104891;28;20031;-83
2023/04/02 08:09:35;;;;;;;4.78;1.30;;;4.60;99.90;;;;;;5102686;28;20039;-83
2023/04/02 08:12:01;;;;;;;5.40;1.30;;;4.90;99.90;;;;;;5106753;27;20066;-85
2023/04/02 08:14:26;;;;;;;4.78;1.17;;;5.30;99.90;;;;;;5104582;27;20487;-81
2023/04/02 08:16:54;;;;;;;5.22;1.10;;;5.50;99.90;;;;;;5136731;27;20401;-83
2023/04/02 08:19:20;;;;;;;4.60;1.25;;;5.70;99.90;;;;;;5102555;28;20036;-83
2023/04/02 08:21:49;;;;;;;3.80;1.10;;;5.90;99.90;;;;;;5102473;27;20071;-83
2023/04/02 08:24:17;;;;;;;4.20;1.20;;;6.00;99.90;;;;;;5115610;27;20448;-83
2023/04/02 08:26:44;;;;;;;5.43;1.20;;;6.10;99.90;;;;;;5111961;27;20074;-84
2023/04/02 08:29:09;;;;;;;2.85;1.20;;;6.10;99.90;;;;;;5101016;28;20039;-85
2023/04/02 08:31:35;;;;;;;3.58;1.02;;;6.20;99.90;;;;;;5113399;27;20032;-84
2023/04/02 08:34:01;;;;;;;3.47;1.00;;;6.20;99.90;;;;;;5089450;28;20167;-83
2023/04/02 08:36:31;;;;;;;2.88;1.10;;;6.30;99.90;;;;;;5099318;28;20046;-82
2023/04/02 08:38:57;;;;;;;5.10;1.30;;;6.30;99.90;;;;;;5106495;28;20062;-84
2023/04/02 08:41:29;;;;;;;4.93;1.10;;;6.30;99.90;;;;;;5081238;28;21754;-84
2023/04/02 08:44:17;;;;;;;4.63;1.40;;;6.30;99.90;;;;;;5101329;28;20027;-83
2023/04/02 08:46:51;;;;;;;2.65;1.10;;;6.30;99.90;;;;;;5100487;28;20084;-84
2023/04/02 08:49:36;;;;;;;3.53;1.40;;;6.40;99.90;;;;;;5102693;28;20032;-83
2023/04/02 08:52:01;;;;;;;2.55;1.13;;;6.50;99.90;;;;;;5107628;28;20065;-84
2023/04/02 08:54:30;;;;;;;3.17;1.23;;;6.60;99.90;;;;;;5114922;28;20118;-83
2023/04/02 08:57:17;;;;;;;4.38;1.42;;;6.60;99.90;;;;;;5104570;28;20032;-84
2023/04/02 08:59:44;;;;;;;6.20;1.15;;;6.70;99.90;;;;;;5097780;28;20047;-83
2023/04/02 09:02:33;;;;;;;3.20;1.00;;;6.60;99.90;;;;;;5132847;27;20123;-82
2023/04/02 09:05:03;;;;;;;3.47;0.88;;;6.80;99.90;;;;;;5089281;28;20035;-84
2023/04/02 09:07:31;;;;;;;3.55;1.17;;;6.80;99.90;;;;;;5110076;28;20540;-85
2023/04/02 09:09:58;;;;;;;4.20;0.95;;;6.90;99.90;;;;;;5106867;28;20040;-83
2023/04/02 09:12:29;;;;;;;3.33;1.00;;;6.90;99.90;;;;;;5111958;27;20043;-84
2023/04/02 09:15:22;;;;;;;3.45;1.10;;;7.00;99.90;;;;;;5098279;27;20043;-84
2023/04/02 09:17:50;;;;;;;3.53;1.20;;;7.10;99.90;;;;;;5107351;28;20032;-83
2023/04/02 09:20:25;;;;;;;3.80;1.23;;;7.00;99.90;;;;;;5108922;28;20044;-85
2023/04/02 09:22:53;;;;;;;3.30;1.05;;;7.00;99.90;;;;;;5108213;28;20495;-83
2023/04/02 09:25:31;;;;;;;6.97;1.85;;;7.00;99.90;;;;;;5097321;28;20035;-85
2023/04/02 09:28:01;;;;;;;3.60;1.25;;;7.10;99.90;;;;;;5103622;28;20070;-84
2023/04/02 09:30:32;;;;;;;3.58;1.23;;;7.20;99.90;;;;;;5107978;28;20066;-84
2023/04/02 09:33:01;;;;;;;2.90;1.10;;;7.20;99.90;;;;;;5112048;27;20083;-84
2023/04/02 09:35:29;;;;;;;2.33;0.95;;;7.20;99.90;;;;;;5130911;27;20040;-84
2023/04/02 09:38:21;;;;;;;5.95;1.67;;;7.30;99.90;;;;;;5117272;27;20035;-84
2023/04/02 09:40:52;;;;;;;3.92;0.98;;;7.20;99.90;;;;;;5114346;27;20085;-84
2023/04/02 09:43:26;;;;;;;3.97;1.33;;;7.30;99.90;;;;;;5142003;27;20043;-83
2023/04/02 09:46:05;;;;;;;3.22;1.05;;;7.30;99.90;;;;;;5111327;27;20036;-84
2023/04/02 09:48:34;;;;;;;4.43;1.20;;;7.30;99.90;;;;;;5110640;27;20511;-84
2023/04/02 09:51:21;;;;;;;4.07;1.10;;;7.40;99.90;;;;;;5106236;27;20043;-83
2023/04/02 09:54:02;;;;;;;4.18;1.10;;;7.40;99.90;;;;;;5109893;28;20172;-83
2023/04/02 09:56:36;;;;;;;4.57;1.20;;;7.50;99.90;;;;;;5122967;27;20050;-84
2023/04/02 09:59:11;;;;;;;6.07;1.30;;;7.70;99.90;;;;;;5117039;27;20044;-84
2023/04/02 10:01:40;;;;;;;3.92;1.52;;;7.70;99.90;;;;;;5096702;28;20032;-82
2023/04/02 10:04:33;;;;;;;2.97;1.10;;;7.80;99.90;;;;;;5110468;28;20071;-84
2023/04/02 10:06:58;;;;;;;3.70;1.02;;;7.90;99.90;;;;;;5105419;28;20119;-83
2023/04/02 10:09:31;;;;;;;3.70;1.33;;;8.10;99.90;;;;;;5103447;28;20182;-83
2023/04/02 10:11:59;;;;;;;2.38;1.02;;;8.20;99.90;;;;;;5107221;28;20043;-83
2023/04/02 10:14:33;;;;;;;4.75;1.40;;;8.30;99.90;;;;;;5120027;27;20039;-83
2023/04/02 10:17:19;;;;;;;3.70;1.00;;;8.30;99.90;;;;;;5113894;27;20043;-82
2023/04/02 10:19:52;;;;;;;4.60;1.08;;;8.40;99.90;;;;;;5120631;27;20122;-82
2023/04/02 10:22:20;;;;;;;3.72;0.93;;;8.60;99.90;;;;;;5113014;27;20031;-83
2023/04/02 10:24:47;;;;;;;3.17;1.10;;;8.60;99.90;;;;;;5110721;27;20386;-85
2023/04/02 10:27:29;;;;;;;2.10;0.80;;;8.70;99.90;;;;;;5113316;28;20038;-84
2023/04/02 10:30:14;;;;;;;3.45;0.90;;;8.80;99.90;;;;;;5096605;28;20040;-83
2023/04/02 10:33:02;;;;;;;5.10;0.98;;;8.90;99.90;;;;;;5104601;28;20039;-84
2023/04/02 10:35:47;;;;;;;1.95;1.10;;;9.00;99.90;;;;;;5088916;28;20047;-83
2023/04/02 10:38:41;;;;;;;2.78;0.82;;;9.10;99.90;;;;;;5114264;27;20075;-83
2023/04/02 10:41:09;;;;;;;;;;;9.30;99.90;;;;;;5127978;27;20048;-84
2023/04/02 10:43:35;;;;;;;2.42;1.00;;;9.40;99.90;;;;;;5107093;28;19915;-81
2023/04/02 10:46:07;;;;;;;2.50;0.90;;;9.40;99.90;;;;;;5091529;28;20104;-83
2023/04/02 10:49:02;;;;;;;3.10;0.90;;;9.50;99.90;;;;;;5112650;28;20035;-83
2023/04/02 10:51:42;;;;;;;1.58;0.80;;;9.50;99.90;;;;;;5108473;27;20065;-84
2023/04/02 10:54:33;;;;;;;2.47;0.88;;;9.60;99.90;;;;;;5110006;28;20051;-83
2023/04/02 10:57:15;;;;;;;4.05;1.30;;;9.70;99.90;;;;;;5109651;28;20043;-82
2023/04/02 10:59:48;;;;;;;4.20;0.85;;;9.70;99.90;;;;;;5084782;28;20062;-82
2023/04/02 11:02:35;;;;;;;2.33;0.90;;;9.80;99.90;;;;;;5083689;28;20031;-82
2023/04/02 11:05:10;;;;;;;2.25;0.70;;;9.70;99.90;;;;;;5101004;28;20085;-83
2023/04/02 11:07:50;;;;;;;2.53;0.80;;;9.70;99.90;;;;;;5107287;27;20027;-82
2023/04/02 11:10:18;;;;;;;3.40;0.90;;;9.80;99.90;;;;;;5114497;27;20510;-83
2023/04/02 11:13:00;;;;;;;3.45;0.90;;;9.80;99.90;;;;;;5132626;27;20043;-84
2023/04/02 11:15:27;;;;;;;3.25;0.90;;;9.90;99.90;;;;;;5089780;27;20035;-84
2023/04/02 11:17:53;;;;;;;3.40;0.80;;;10.00;99.90;;;;;;5111121;28;20399;-84
2023/04/02 11:20:42;;;;;;;2.25;0.80;;;10.10;99.90;;;;;;5104346;28;20047;-83
2023/04/02 11:23:12;;;;;;;2.95;0.70;;;10.20;99.90;;;;;;5095617;28;20085;-83
2023/04/02 11:25:40;;;;;;;4.18;0.90;;;10.30;99.90;;;;;;5104583;28;20063;-82
2023/04/02 11:28:27;;;;;;;3.00;0.70;;;10.20;99.90;;;;;;5086331;28;20067;-82
2023/04/02 11:30:54;;;;;;;2.95;0.70;;;10.10;99.90;;;;;;5086190;28;20049;-82
2023/04/02 11:33:34;;;;;;;2.72;0.60;;;10.30;99.90;;;;;;5105457;28;20039;-82
2023/04/02 11:36:01;;;;;;;1.95;0.73;;;10.40;99.90;;;;;;5109102;28;20035;-83
2023/04/02 11:38:26;;;;;;;2.50;0.88;;;10.50;99.90;;;;;;5106932;28;20265;-82
2023/04/02 11:40:55;;;;;;;1.98;0.80;;;10.60;99.90;;;;;;5114270;28;20039;-82
2023/04/02 11:43:47;;;;;;;1.10;0.70;;;10.60;99.90;;;;;;5107123;28;20077;-82
2023/04/02 11:46:15;;;;;;;1.27;0.50;;;10.70;99.90;;;;;;5109920;27;20131;-84
2023/04/02 11:48:42;;;;;;;2.85;0.70;;;10.80;99.90;;;;;;5132697;27;20024;-83
2023/04/02 11:51:20;;;;;;;2.53;0.70;;;10.90;99.90;;;;;;5103610;28;20075;-83
2023/04/02 11:53:46;;;;;;;3.42;0.73;;;11.10;99.90;;;;;;5105902;28;20051;-83
2023/04/02 11:56:35;;;;;;;4.03;0.90;;;11.20;99.90;;;;;;5078820;28;20403;-82
2023/04/02 11:59:15;;;;;;;4.13;0.88;;;11.40;99.90;;;;;;5076678;28;20052;-82
2023/04/02 12:02:22;;;;;;;1.95;0.60;;;11.40;99.90;;;;;;5073159;28;20051;-83
2023/04/02 12:04:50;;;;;;;3.83;0.90;;;11.50;99.90;;;;;;5074705;28;20036;-83
2023/04/02 12:07:50;;;;;;;4.53;0.70;;;11.50;99.90;;;;;;5053913;28;20036;-84
2023/04/02 12:10:22;;;;;;;2.88;0.65;;;11.40;99.90;;;;;;5054994;28;20043;-83
2023/04/02 12:12:49;;;;;;;2.35;0.90;;;11.50;99.90;;;;;;5070668;28;20547;-84
2023/04/02 12:15:43;;;;;;;2.20;1.00;;;11.60;99.90;;;;;;5068789;28;20439;-83
2023/04/02 12:18:22;;;;;;;2.67;0.77;;;11.60;99.90;;;;;;5070009;28;20139;-83
2023/04/02 12:20:55;;;;;;;1.15;0.43;;;12.10;99.90;;;;;;5061804;28;20029;-83
2023/04/02 12:23:35;;;;;;;2.88;0.73;;;11.80;99.90;;;;;;5082587;28;20415;-83
2023/04/02 12:26:23;;;;;;;3.90;0.82;;;11.90;99.90;;;;;;5081493;28;20036;-83
2023/04/02 12:28:49;;;;;;;1.60;0.52;;;11.80;99.90;;;;;;5080647;28;20381;-82
2023/04/02 12:31:16;;;;;;;3.20;0.90;;;11.70;99.90;;;;;;5084654;28;20044;-83
2023/04/02 12:33:43;;;;;;;3.50;0.80;;;11.70;99.90;;;;;;5082977;28;20036;-83
2023/04/02 12:36:14;;;;;;;1.92;0.70;;;11.60;99.90;;;;;;5075919;28;20047;-82
2023/04/02 12:38:55;;;;;;;1.42;0.68;;;11.50;99.90;;;;;;5076180;28;20043;-83
2023/04/02 12:41:30;;;;;;;1.92;0.70;;;11.50;99.90;;;;;;5068487;28;20107;-82
2023/04/02 12:44:00;;;;;;;2.15;0.80;;;11.60;99.90;;;;;;5061016;28;20033;-82
2023/04/02 12:46:28;;;;;;;1.05;0.40;;;11.60;99.90;;;;;;5061736;28;20037;-82
2023/04/02 12:48:59;;;;;;;4.40;0.70;;;11.70;99.90;;;;;;5070932;28;20507;-83
2023/04/02 12:51:24;;;;;;;3.58;0.65;;;11.90;99.90;;;;;;5075950;28;20028;-81
2023/04/02 12:53:51;;;;;;;2.08;1.00;;;12.00;99.90;;;;;;5086042;28;20040;-82
2023/04/02 12:56:20;;;;;;;2.17;0.75;;;12.10;99.90;;;;;;5069744;28;20634;-81
2023/04/02 12:58:52;;;;;;;3.03;0.90;;;12.30;99.90;;;;;;5080949;28;20684;-84
2023/04/02 13:01:22;;;;;;;4.18;1.10;;;12.50;99.90;;;;;;5083751;28;20128;-83
2023/04/02 13:04:01;;;;;;;2.88;0.80;;;12.50;99.90;;;;;;5082882;28;20032;-82
2023/04/02 13:06:26;;;;;;;1.83;0.70;;;12.50;99.90;;;;;;5069761;28;20040;-82
2023/04/02 13:08:53;;;;;;;2.05;0.70;;;12.70;99.90;;;;;;5055236;28;20036;-81
2023/04/02 13:11:19;;;;;;;2.67;0.65;;;12.70;99.90;;;;;;5047846;28;20041;-83
2023/04/02 13:13:47;;;;;;;1.35;0.70;;;12.80;99.90;;;;;;5054684;28;20033;-83
2023/04/02 13:16:16;;;;;;;3.20;1.05;;;12.90;99.90;;;;;;5073367;28;20040;-83
2023/04/02 13:18:43;;;;;;;2.97;0.70;;;12.80;99.90;;;;;;5055753;28;20048;-82
2023/04/02 13:21:18;;;;;;;2.15;0.80;;;12.70;99.90;;;;;;5056625;28;20037;-82
2023/04/02 13:23:44;;;;;;;3.03;1.17;;;12.70;99.90;;;;;;5056240;28;20037;-81
2023/04/02 13:26:20;;;;;;;1.65;0.60;;;13.00;99.90;;;;;;5055167;28;20518;-81
2023/04/02 13:29:16;;;;;;;0.93;0.50;;;13.00;99.90;;;;;;5056545;28;20381;-81
2023/04/02 13:31:42;;;;;;;2.33;1.02;;;12.90;99.90;;;;;;5041415;28;20040;-81